sensor_id;sensor_type;location;lat;lon;timestamp;pressure;altitude;pressure_sealevel;temperature;humidity
33163;BME280;29282;45.656;11.302;2022-12-07T00:01:08;98130.53;;;18.59;51.59
33163;BME280;29282;45.656;11.302;2022-12-07T00:03:35;98136.03;;;18.59;51.59
33163;BME280;29282;45.656;11.302;2022-12-07T00:06:02;98127.81;;;18.59;51.63
33163;BME280;29282;45.656;11.302;2022-12-07T00:08:28;98132.94;;;18.61;51.41
33163;BME280;29282;45.656;11.302;2022-12-07T00:10:54;98132.50;;;18.59;51.45
33163;BME280;29282;45.656;11.302;2022-12-07T00:13:20;98123.47;;;18.58;51.42
33163;BME280;29282;45.656;11.302;2022-12-07T00:15:46;98123.91;;;18.60;51.43
33163;BME280;29282;45.656;11.302;2022-12-07T00:18:11;98123.91;;;18.60;51.43
33163;BME280;29282;45.656;11.302;2022-12-07T00:20:37;98114.09;;;18.59;51.42
33163;BME280;29282;45.656;11.302;2022-12-07T00:23:02;98118.41;;;18.60;51.23
33163;BME280;29282;45.656;11.302;2022-12-07T00:25:28;98108.59;;;18.59;51.20
33163;BME280;29282;45.656;11.302;2022-12-07T00:27:55;98112.13;;;18.60;51.19
33163;BME280;29282;45.656;11.302;2022-12-07T00:30:22;98112.13;;;18.60;51.17
33163;BME280;29282;45.656;11.302;2022-12-07T00:32:48;98111.34;;;18.59;51.22
33163;BME280;29282;45.656;11.302;2022-12-07T00:35:14;98107.44;;;18.60;51.22
33163;BME280;29282;45.656;11.302;2022-12-07T00:37:39;98110.19;;;18.60;51.29
33163;BME280;29282;45.656;11.302;2022-12-07T00:40:06;98107.44;;;18.60;51.19
33163;BME280;29282;45.656;11.302;2022-12-07T00:42:31;98110.97;;;18.61;51.26
33163;BME280;29282;45.656;11.302;2022-12-07T00:44:57;98110.66;;;18.62;51.10
33163;BME280;29282;45.656;11.302;2022-12-07T00:47:22;98109.06;;;18.61;51.07
33163;BME280;29282;45.656;11.302;2022-12-07T00:49:48;98110.19;;;18.60;51.09
33163;BME280;29282;45.656;11.302;2022-12-07T00:52:13;98105.50;;;18.61;51.03
33163;BME280;29282;45.656;11.302;2022-12-07T00:54:39;98110.19;;;18.60;51.18
33163;BME280;29282;45.656;11.302;2022-12-07T00:57:05;98107.44;;;18.60;50.95
33163;BME280;29282;45.656;11.302;2022-12-07T00:59:30;98112.59;;;18.62;51.06
33163;BME280;29282;45.656;11.302;2022-12-07T01:01:56;98112.94;;;18.60;51.17
33163;BME280;29282;45.656;11.302;2022-12-07T01:04:21;98103.09;;;18.59;51.08
33163;BME280;29282;45.656;11.302;2022-12-07T01:06:47;98114.09;;;18.59;50.91
33163;BME280;29282;45.656;11.302;2022-12-07T01:09:12;98103.09;;;18.59;51.08
33163;BME280;29282;45.656;11.302;2022-12-07T01:11:38;98098.78;;;18.58;51.01
33163;BME280;29282;45.656;11.302;2022-12-07T01:14:03;98099.09;;;18.57;51.03
33163;BME280;29282;45.656;11.302;2022-12-07T01:16:30;98100.38;;;18.59;51.11
33163;BME280;29282;45.656;11.302;2022-12-07T01:18:57;98100.72;;;18.58;51.11
33163;BME280;29282;45.656;11.302;2022-12-07T01:21:28;98096.34;;;18.57;50.85
33163;BME280;29282;45.656;11.302;2022-12-07T01:23:56;98095.56;;;18.56;51.03
33163;BME280;29282;45.656;11.302;2022-12-07T01:26:23;98096.69;;;18.55;51.08
33163;BME280;29282;45.656;11.302;2022-12-07T01:28:49;98084.56;;;18.56;50.96
33163;BME280;29282;45.656;11.302;2022-12-07T01:31:18;98088.78;;;18.53;51.00
33163;BME280;29282;45.656;11.302;2022-12-07T01:33:46;98095.91;;;18.54;51.06
33163;BME280;29282;45.656;11.302;2022-12-07T01:36:28;98095.09;;;18.54;51.01
33163;BME280;29282;45.656;11.302;2022-12-07T01:39:00;98093.16;;;18.54;51.04
33163;BME280;29282;45.656;11.302;2022-12-07T01:41:28;98095.09;;;18.54;50.99
33163;BME280;29282;45.656;11.302;2022-12-07T01:44:17;98095.56;;;18.56;50.82
33163;BME280;29282;45.656;11.302;2022-12-07T01:46:46;98090.41;;;18.54;50.87
33163;BME280;29282;45.656;11.302;2022-12-07T01:49:18;98073.97;;;18.54;50.81
33163;BME280;29282;45.656;11.302;2022-12-07T01:51:47;98073.13;;;18.54;50.87
33163;BME280;29282;45.656;11.302;2022-12-07T01:54:15;98069.59;;;18.53;50.89
33163;BME280;29282;45.656;11.302;2022-12-07T01:56:50;98077.50;;;18.55;50.86
33163;BME280;29282;45.656;11.302;2022-12-07T01:59:18;98073.97;;;18.54;50.88
33163;BME280;29282;45.656;11.302;2022-12-07T02:01:45;98072.00;;;18.55;50.96
33163;BME280;29282;45.656;11.302;2022-12-07T02:04:11;98062.97;;;18.54;50.77
33163;BME280;29282;45.656;11.302;2022-12-07T02:06:37;98066.06;;;18.53;50.75
33163;BME280;29282;45.656;11.302;2022-12-07T02:09:03;98060.91;;;18.51;50.94
33163;BME280;29282;45.656;11.302;2022-12-07T02:11:29;98060.13;;;18.51;50.86
33163;BME280;29282;45.656;11.302;2022-12-07T02:13:55;98060.13;;;18.51;50.77
33163;BME280;29282;45.656;11.302;2022-12-07T02:22:01;98060.91;;;18.51;50.78
33163;BME280;29282;45.656;11.302;2022-12-07T02:27:37;98057.38;;;18.51;50.70
33163;BME280;29282;45.656;11.302;2022-12-07T02:30:22;98061.25;;;18.50;50.81
33163;BME280;29282;45.656;11.302;2022-12-07T02:33:01;98060.13;;;18.51;50.78
33163;BME280;29282;45.656;11.302;2022-12-07T02:38:38;98047.53;;;18.50;50.81
33163;BME280;29282;45.656;11.302;2022-12-07T02:41:22;98049.94;;;18.51;50.65
33163;BME280;29282;45.656;11.302;2022-12-07T02:44:00;98044.78;;;18.50;50.57
33163;BME280;29282;45.656;11.302;2022-12-07T02:46:31;98051.41;;;18.49;50.78
33163;BME280;29282;45.656;11.302;2022-12-07T02:48:58;98045.94;;;18.49;50.80
33163;BME280;29282;45.656;11.302;2022-12-07T02:51:30;98043.19;;;18.49;50.70
33163;BME280;29282;45.656;11.302;2022-12-07T02:53:56;98053.81;;;18.50;50.76
33163;BME280;29282;45.656;11.302;2022-12-07T03:02:05;98055.75;;;18.50;50.48
33163;BME280;29282;45.656;11.302;2022-12-07T03:07:06;98043.66;;;18.51;50.80
33163;BME280;29282;45.656;11.302;2022-12-07T03:09:46;98047.19;;;18.51;50.57
33163;BME280;29282;45.656;11.302;2022-12-07T03:12:24;98051.06;;;18.50;50.68
33163;BME280;29282;45.656;11.302;2022-12-07T03:15:00;98051.06;;;18.50;50.57
33163;BME280;29282;45.656;11.302;2022-12-07T03:17:30;98048.31;;;18.50;50.54
33163;BME280;29282;45.656;11.302;2022-12-07T03:20:00;98050.75;;;18.52;50.61
33163;BME280;29282;45.656;11.302;2022-12-07T03:22:29;98055.75;;;18.50;50.55
33163;BME280;29282;45.656;11.302;2022-12-07T03:25:04;98048.00;;;18.52;50.46
33163;BME280;29282;45.656;11.302;2022-12-07T03:27:34;98057.38;;;18.51;50.57
33163;BME280;29282;45.656;11.302;2022-12-07T03:30:06;98056.22;;;18.52;50.45
33163;BME280;29282;45.656;11.302;2022-12-07T03:32:44;98044.78;;;18.50;50.48
33163;BME280;29282;45.656;11.302;2022-12-07T03:35:32;98050.28;;;18.50;50.47
33163;BME280;29282;45.656;11.302;2022-12-07T03:41:25;98040.44;;;18.49;50.43
33163;BME280;29282;45.656;11.302;2022-12-07T03:43:51;98040.91;;;18.51;50.25
33163;BME280;29282;45.656;11.302;2022-12-07T03:46:37;98039.66;;;18.48;50.33
33163;BME280;29282;45.656;11.302;2022-12-07T03:49:13;98037.69;;;18.49;50.72
33163;BME280;29282;45.656;11.302;2022-12-07T03:51:50;98037.22;;;18.47;50.53
33163;BME280;29282;45.656;11.302;2022-12-07T03:54:25;98035.28;;;18.47;50.20
33163;BME280;29282;45.656;11.302;2022-12-07T03:56:53;98032.53;;;18.47;50.43
33163;BME280;29282;45.656;11.302;2022-12-07T03:59:19;98027.41;;;18.46;50.44
33163;BME280;29282;45.656;11.302;2022-12-07T04:01:53;98027.41;;;18.46;50.41
33163;BME280;29282;45.656;11.302;2022-12-07T04:04:19;98029.00;;;18.47;50.41
33163;BME280;29282;45.656;11.302;2022-12-07T04:06:44;98034.84;;;18.45;50.39
33163;BME280;29282;45.656;11.302;2022-12-07T04:09:10;98035.16;;;18.44;50.35
33163;BME280;29282;45.656;11.302;2022-12-07T04:11:36;98026.13;;;18.43;50.52
33163;BME280;29282;45.656;11.302;2022-12-07T04:14:02;98020.66;;;18.43;50.33
33163;BME280;29282;45.656;11.302;2022-12-07T04:16:56;98028.56;;;18.45;50.43
33163;BME280;29282;45.656;11.302;2022-12-07T04:19:27;98025.34;;;18.43;50.36
33163;BME280;29282;45.656;11.302;2022-12-07T04:21:53;98023.41;;;18.43;50.31
33163;BME280;29282;45.656;11.302;2022-12-07T04:24:19;98022.59;;;18.43;50.23
33163;BME280;29282;45.656;11.302;2022-12-07T04:26:46;98018.72;;;18.44;50.30
33163;BME280;29282;45.656;11.302;2022-12-07T04:29:11;98022.28;;;18.44;50.40
33163;BME280;29282;45.656;11.302;2022-12-07T04:31:38;98022.28;;;18.44;50.25
33163;BME280;29282;45.656;11.302;2022-12-07T04:34:04;98023.06;;;18.45;50.30
33163;BME280;29282;45.656;11.302;2022-12-07T04:36:30;98018.72;;;18.44;50.21
33163;BME280;29282;45.656;11.302;2022-12-07T04:38:56;98015.97;;;18.44;50.50
33163;BME280;29282;45.656;11.302;2022-12-07T04:41:23;98013.22;;;18.44;50.23
33163;BME280;29282;45.656;11.302;2022-12-07T04:43:56;98014.38;;;18.43;50.28
33163;BME280;29282;45.656;11.302;2022-12-07T04:46:23;98019.53;;;18.44;50.31
33163;BME280;29282;45.656;11.302;2022-12-07T04:48:49;98009.69;;;18.43;50.15
33163;BME280;29282;45.656;11.302;2022-12-07T04:51:21;98009.69;;;18.43;50.35
33163;BME280;29282;45.656;11.302;2022-12-07T04:53:47;98014.06;;;18.44;50.26
33163;BME280;29282;45.656;11.302;2022-12-07T04:56:14;98016.44;;;18.46;50.06
33163;BME280;29282;45.656;11.302;2022-12-07T04:58:41;98018.72;;;18.44;50.35
33163;BME280;29282;45.656;11.302;2022-12-07T05:01:06;98021.44;;;18.44;50.25
33163;BME280;29282;45.656;11.302;2022-12-07T05:03:32;98014.06;;;18.44;50.27
33163;BME280;29282;45.656;11.302;2022-12-07T05:05:57;98008.56;;;18.44;50.29
33163;BME280;29282;45.656;11.302;2022-12-07T05:08:23;98014.84;;;18.45;50.28
33163;BME280;29282;45.656;11.302;2022-12-07T05:10:49;98012.09;;;18.45;50.05
33163;BME280;29282;45.656;11.302;2022-12-07T05:13:15;98007.41;;;18.45;50.17
33163;BME280;29282;45.656;11.302;2022-12-07T05:15:40;97999.50;;;18.44;50.13
33163;BME280;29282;45.656;11.302;2022-12-07T05:18:08;97997.91;;;18.43;50.20
33163;BME280;29282;45.656;11.302;2022-12-07T05:20:34;97997.91;;;18.43;50.21
33163;BME280;29282;45.656;11.302;2022-12-07T05:23:00;98000.66;;;18.43;50.12
33163;BME280;29282;45.656;11.302;2022-12-07T05:25:25;97998.38;;;18.45;50.19
33163;BME280;29282;45.656;11.302;2022-12-07T05:27:51;98000.78;;;18.46;49.97
33163;BME280;29282;45.656;11.302;2022-12-07T05:30:16;97992.22;;;18.48;49.81
33163;BME280;29282;45.656;11.302;2022-12-07T05:32:42;97997.03;;;18.51;49.81
33163;BME280;29282;45.656;11.302;2022-12-07T05:35:09;97991.53;;;18.51;49.84
33163;BME280;29282;45.656;11.302;2022-12-07T05:37:34;97998.03;;;18.59;50.13
33163;BME280;29282;45.656;11.302;2022-12-07T05:40:00;97996.91;;;18.60;50.22
33163;BME280;29282;45.656;11.302;2022-12-07T05:42:26;97992.56;;;18.59;50.13
33163;BME280;29282;45.656;11.302;2022-12-07T05:44:51;97998.84;;;18.59;49.96
33163;BME280;29282;45.656;11.302;2022-12-07T05:47:17;97998.84;;;18.59;49.85
33163;BME280;29282;45.656;11.302;2022-12-07T05:49:43;98000.09;;;18.62;49.72
33163;BME280;29282;45.656;11.302;2022-12-07T05:52:08;97997.69;;;18.60;49.84
33163;BME280;29282;45.656;11.302;2022-12-07T05:54:34;97979.63;;;18.59;49.83
33163;BME280;29282;45.656;11.302;2022-12-07T05:56:59;97979.63;;;18.59;49.86
33163;BME280;29282;45.656;11.302;2022-12-07T05:59:25;97985.91;;;18.60;49.70
33163;BME280;29282;45.656;11.302;2022-12-07T06:04:20;97987.88;;;18.59;50.02
33163;BME280;29282;45.656;11.302;2022-12-07T06:06:45;97986.72;;;18.60;49.72
33163;BME280;29282;45.656;11.302;2022-12-07T06:09:12;97986.38;;;18.62;49.60
33163;BME280;29282;45.656;11.302;2022-12-07T06:11:38;97991.75;;;18.58;49.77
33163;BME280;29282;45.656;11.302;2022-12-07T06:14:22;98005.00;;;18.56;49.77
33163;BME280;29282;45.656;11.302;2022-12-07T06:16:48;98000.78;;;18.59;49.75
33163;BME280;29282;45.656;11.302;2022-12-07T06:19:13;98005.00;;;18.56;49.94
33163;BME280;29282;45.656;11.302;2022-12-07T06:21:39;98003.41;;;18.55;49.90
33163;BME280;29282;45.656;11.302;2022-12-07T06:24:04;98011.97;;;18.53;50.18
33163;BME280;29282;45.656;11.302;2022-12-07T06:26:30;98016.66;;;18.53;50.21
33163;BME280;29282;45.656;11.302;2022-12-07T06:28:56;98011.97;;;18.53;50.02
33163;BME280;29282;45.656;11.302;2022-12-07T06:31:22;98011.19;;;18.53;50.16
33163;BME280;29282;45.656;11.302;2022-12-07T06:33:47;98010.38;;;18.52;49.95
33163;BME280;29282;45.656;11.302;2022-12-07T06:36:13;98005.69;;;18.53;49.85
33163;BME280;29282;45.656;11.302;2022-12-07T06:38:38;98011.19;;;18.53;50.09
33163;BME280;29282;45.656;11.302;2022-12-07T06:41:04;98015.50;;;18.54;50.01
33163;BME280;29282;45.656;11.302;2022-12-07T06:43:30;98013.59;;;18.54;49.91
33163;BME280;29282;45.656;11.302;2022-12-07T06:45:56;98021.47;;;18.56;50.00
33163;BME280;29282;45.656;11.302;2022-12-07T06:48:21;98017.47;;;18.53;50.15
33163;BME280;29282;45.656;11.302;2022-12-07T06:50:47;98016.34;;;18.54;49.98
33163;BME280;29282;45.656;11.302;2022-12-07T06:53:13;98020.56;;;18.52;50.17
33163;BME280;29282;45.656;11.302;2022-12-07T06:55:39;98015.88;;;18.52;50.03
33163;BME280;29282;45.656;11.302;2022-12-07T06:58:05;98015.06;;;18.52;50.00
33163;BME280;29282;45.656;11.302;2022-12-07T07:00:30;98019.09;;;18.54;49.91
33163;BME280;29282;45.656;11.302;2022-12-07T07:02:56;98018.25;;;18.54;50.18
33163;BME280;29282;45.656;11.302;2022-12-07T07:05:21;98008.78;;;18.51;50.23
33163;BME280;29282;45.656;11.302;2022-12-07T07:07:51;98012.34;;;18.52;50.08
33163;BME280;29282;45.656;11.302;2022-12-07T07:10:16;98013.34;;;18.47;50.35
33163;BME280;29282;45.656;11.302;2022-12-07T07:12:42;98014.84;;;18.45;50.53
33163;BME280;29282;45.656;11.302;2022-12-07T07:15:08;98011.75;;;18.46;50.33
33163;BME280;29282;45.656;11.302;2022-12-07T07:17:34;98017.59;;;18.45;50.60
33163;BME280;29282;45.656;11.302;2022-12-07T07:19:59;98019.53;;;18.44;50.46
33163;BME280;29282;45.656;11.302;2022-12-07T07:22:25;98019.84;;;18.43;50.48
33163;BME280;29282;45.656;11.302;2022-12-07T07:24:51;98026.94;;;18.44;50.46
33163;BME280;29282;45.656;11.302;2022-12-07T07:27:16;98020.66;;;18.43;50.41
33163;BME280;29282;45.656;11.302;2022-12-07T07:29:42;98028.09;;;18.43;50.46
33163;BME280;29282;45.656;11.302;2022-12-07T07:32:07;98024.56;;;18.42;50.35
33163;BME280;29282;45.656;11.302;2022-12-07T07:34:33;98030.34;;;18.41;50.48
33163;BME280;29282;45.656;11.302;2022-12-07T07:36:59;98036.66;;;18.41;50.52
33163;BME280;29282;45.656;11.302;2022-12-07T07:39:25;98040.53;;;18.40;50.50
33163;BME280;29282;45.656;11.302;2022-12-07T07:41:51;98043.28;;;18.40;50.31
33163;BME280;29282;45.656;11.302;2022-12-07T07:44:16;98044.53;;;18.43;50.58
33163;BME280;29282;45.656;11.302;2022-12-07T07:46:42;98039.53;;;18.45;50.62
33163;BME280;29282;45.656;11.302;2022-12-07T07:49:09;98039.06;;;18.43;50.43
33163;BME280;29282;45.656;11.302;2022-12-07T07:51:35;98037.47;;;18.42;50.49
33163;BME280;29282;45.656;11.302;2022-12-07T07:54:01;98038.16;;;18.39;50.70
33163;BME280;29282;45.656;11.302;2022-12-07T07:56:26;98037.69;;;18.37;50.74
33163;BME280;29282;45.656;11.302;2022-12-07T07:58:52;98039.63;;;18.36;50.74
33163;BME280;29282;45.656;11.302;2022-12-07T08:01:18;98039.28;;;18.38;50.96
33163;BME280;29282;45.656;11.302;2022-12-07T08:03:48;98030.25;;;18.37;50.78
33163;BME280;29282;45.656;11.302;2022-12-07T08:06:14;98038.81;;;18.36;50.85
33163;BME280;29282;45.656;11.302;2022-12-07T08:08:39;98041.22;;;18.37;50.87
33163;BME280;29282;45.656;11.302;2022-12-07T08:11:06;98040.41;;;18.37;50.76
33163;BME280;29282;45.656;11.302;2022-12-07T08:13:31;98045.59;;;18.38;50.81
33163;BME280;29282;45.656;11.302;2022-12-07T08:15:57;98044.44;;;18.39;50.90
33163;BME280;29282;45.656;11.302;2022-12-07T08:18:23;98046.69;;;18.37;50.96
33163;BME280;29282;45.656;11.302;2022-12-07T08:20:48;98054.13;;;18.37;50.82
33163;BME280;29282;45.656;11.302;2022-12-07T08:23:14;98060.75;;;18.36;50.85
33163;BME280;29282;45.656;11.302;2022-12-07T08:25:40;98055.28;;;18.36;51.04
33163;BME280;29282;45.656;11.302;2022-12-07T08:28:06;98055.28;;;18.36;50.99
33163;BME280;29282;45.656;11.302;2022-12-07T08:30:32;98045.09;;;18.36;51.06
33163;BME280;29282;45.656;11.302;2022-12-07T08:32:57;98052.84;;;18.34;50.99
33163;BME280;29282;45.656;11.302;2022-12-07T08:35:24;98046.56;;;18.34;51.06
33163;BME280;29282;45.656;11.302;2022-12-07T08:37:49;98046.13;;;18.31;51.20
33163;BME280;29282;45.656;11.302;2022-12-07T08:40:15;98046.56;;;18.34;51.21
33163;BME280;29282;45.656;11.302;2022-12-07T08:42:42;98048.09;;;18.31;51.22
33163;BME280;29282;45.656;11.302;2022-12-07T08:45:12;98047.72;;;18.33;51.30
33163;BME280;29282;45.656;11.302;2022-12-07T08:47:41;98049.69;;;18.32;51.11
33163;BME280;29282;45.656;11.302;2022-12-07T08:50:09;98051.94;;;18.30;51.18
33163;BME280;29282;45.656;11.302;2022-12-07T08:52:35;98053.09;;;18.29;51.26
33163;BME280;29282;45.656;11.302;2022-12-07T08:55:02;98038.59;;;18.28;51.34
33163;BME280;29282;45.656;11.302;2022-12-07T08:57:29;98054.25;;;18.28;51.31
33163;BME280;29282;45.656;11.302;2022-12-07T08:59:55;98059.72;;;18.28;51.45
33163;BME280;29282;45.656;11.302;2022-12-07T09:02:20;98057.31;;;18.26;51.33
33163;BME280;29282;45.656;11.302;2022-12-07T09:04:46;98055.34;;;18.27;51.31
33163;BME280;29282;45.656;11.302;2022-12-07T09:07:12;98055.72;;;18.25;51.34
33163;BME280;29282;45.656;11.302;2022-12-07T09:09:37;98058.47;;;18.25;51.53
33163;BME280;29282;45.656;11.302;2022-12-07T09:12:03;98062.00;;;18.26;51.46
33163;BME280;29282;45.656;11.302;2022-12-07T09:14:29;98067.13;;;18.27;51.45
33163;BME280;29282;45.656;11.302;2022-12-07T09:16:54;98059.72;;;18.28;51.49
33163;BME280;29282;45.656;11.302;2022-12-07T09:19:19;98066.00;;;18.28;51.39
33163;BME280;29282;45.656;11.302;2022-12-07T09:21:45;98063.59;;;18.27;51.53
33163;BME280;29282;45.656;11.302;2022-12-07T09:24:12;98063.59;;;18.27;51.59
33163;BME280;29282;45.656;11.302;2022-12-07T09:26:38;98057.31;;;18.26;51.62
33163;BME280;29282;45.656;11.302;2022-12-07T09:29:05;98060.41;;;18.25;51.63
33163;BME280;29282;45.656;11.302;2022-12-07T09:31:31;98058.47;;;18.25;51.53
33163;BME280;29282;45.656;11.302;2022-12-07T09:33:58;98051.81;;;18.26;51.57
33163;BME280;29282;45.656;11.302;2022-12-07T09:36:25;98049.44;;;18.25;51.56
33163;BME280;29282;45.656;11.302;2022-12-07T09:38:51;98045.06;;;18.24;51.66
33163;BME280;29282;45.656;11.302;2022-12-07T09:41:17;98049.75;;;18.23;51.53
33163;BME280;29282;45.656;11.302;2022-12-07T09:43:42;98048.16;;;18.22;51.46
33163;BME280;29282;45.656;11.302;2022-12-07T09:46:13;98042.69;;;18.22;51.62
33163;BME280;29282;45.656;11.302;2022-12-07T09:48:40;98048.50;;;18.21;51.68
33163;BME280;29282;45.656;11.302;2022-12-07T09:51:16;98032.03;;;18.21;51.80
33163;BME280;29282;45.656;11.302;2022-12-07T09:53:42;98029.28;;;18.21;51.80
33163;BME280;29282;45.656;11.302;2022-12-07T09:56:12;98048.50;;;18.21;51.64
33163;BME280;29282;45.656;11.302;2022-12-07T09:58:38;98035.94;;;18.20;51.70
33163;BME280;29282;45.656;11.302;2022-12-07T10:03:34;98035.94;;;18.20;51.84
33163;BME280;29282;45.656;11.302;2022-12-07T10:06:01;98026.44;;;18.17;51.94
33163;BME280;29282;45.656;11.302;2022-12-07T10:08:27;98033.53;;;18.18;51.94
33163;BME280;29282;45.656;11.302;2022-12-07T10:10:54;98023.69;;;18.17;51.87
33163;BME280;29282;45.656;11.302;2022-12-07T10:13:34;98018.19;;;18.17;51.97
33163;BME280;29282;45.656;11.302;2022-12-07T10:16:00;98022.56;;;18.18;51.91
33163;BME280;29282;45.656;11.302;2022-12-07T10:18:29;98008.38;;;18.16;51.83
33163;BME280;29282;45.656;11.302;2022-12-07T10:23:33;98010.34;;;18.16;51.84
33163;BME280;29282;45.656;11.302;2022-12-07T10:26:20;98007.59;;;18.16;51.94
33163;BME280;29282;45.656;11.302;2022-12-07T10:28:47;98009.19;;;18.17;51.97
33163;BME280;29282;45.656;11.302;2022-12-07T10:31:19;98004.38;;;18.14;52.10
33163;BME280;29282;45.656;11.302;2022-12-07T10:33:57;98001.63;;;18.14;52.01
33163;BME280;29282;45.656;11.302;2022-12-07T10:39:03;97998.88;;;18.14;52.20
33163;BME280;29282;45.656;11.302;2022-12-07T10:41:30;97995.34;;;18.13;52.04
33163;BME280;29282;45.656;11.302;2022-12-07T10:43:57;98000.84;;;18.13;52.07
33163;BME280;29282;45.656;11.302;2022-12-07T10:46:44;98000.84;;;18.13;52.19
33163;BME280;29282;45.656;11.302;2022-12-07T10:52:00;97998.88;;;18.14;52.23
33163;BME280;29282;45.656;11.302;2022-12-07T11:06:00;97981.66;;;18.13;52.21
33163;BME280;29282;45.656;11.302;2022-12-07T11:08:08;97981.66;;;18.13;52.25
33163;BME280;29282;45.656;11.302;2022-12-07T11:10:55;97978.91;;;18.13;52.36
33163;BME280;29282;45.656;11.302;2022-12-07T11:21:48;97967.47;;;18.11;52.34
33163;BME280;29282;45.656;11.302;2022-12-07T11:24:19;97974.56;;;18.12;52.33
33163;BME280;29282;45.656;11.302;2022-12-07T11:37:18;97945.41;;;18.07;52.62
33163;BME280;29282;45.656;11.302;2022-12-07T11:39:51;97946.25;;;18.08;52.51
33163;BME280;29282;45.656;11.302;2022-12-07T11:42:40;97939.94;;;18.07;52.57
33163;BME280;29282;45.656;11.302;2022-12-07T11:47:55;97938.34;;;18.06;52.56
33163;BME280;29282;45.656;11.302;2022-12-07T11:50:42;97935.13;;;18.04;52.70
33163;BME280;29282;45.656;11.302;2022-12-07T11:55:57;97935.13;;;18.04;52.62
33163;BME280;29282;45.656;11.302;2022-12-07T12:06:36;97924.50;;;18.03;52.79
33163;BME280;29282;45.656;11.302;2022-12-07T12:17:44;97910.34;;;18.01;52.89
33163;BME280;29282;45.656;11.302;2022-12-07T12:23:19;97906.00;;;18.00;52.95
33163;BME280;29282;45.656;11.302;2022-12-07T12:25:53;97905.53;;;17.98;53.02
33163;BME280;29282;45.656;11.302;2022-12-07T12:28:42;97908.28;;;17.98;52.97
33163;BME280;29282;45.656;11.302;2022-12-07T12:33:50;97911.00;;;17.98;52.85
33163;BME280;29282;45.656;11.302;2022-12-07T12:39:11;97912.16;;;17.97;52.77
33163;BME280;29282;45.656;11.302;2022-12-07T12:46:52;97896.88;;;17.96;52.92
33163;BME280;29282;45.656;11.302;2022-12-07T12:54:24;97902.34;;;17.96;52.85
33163;BME280;29282;45.656;11.302;2022-12-07T12:57:08;97898.81;;;17.95;53.13
33163;BME280;29282;45.656;11.302;2022-12-07T12:59:38;97902.34;;;17.96;53.28
33163;BME280;29282;45.656;11.302;2022-12-07T13:07:52;97900.75;;;17.95;53.42
33163;BME280;29282;45.656;11.302;2022-12-07T13:15:42;97895.59;;;17.93;53.50
33163;BME280;29282;45.656;11.302;2022-12-07T13:20:58;97895.59;;;17.93;53.66
33163;BME280;29282;45.656;11.302;2022-12-07T13:26:41;97881.91;;;17.93;53.68
33163;BME280;29282;45.656;11.302;2022-12-07T13:29:17;97891.28;;;17.92;53.67
33163;BME280;29282;45.656;11.302;2022-12-07T13:31:47;97883.06;;;17.92;53.49
33163;BME280;29282;45.656;11.302;2022-12-07T13:34:40;97885.78;;;17.92;53.56
33163;BME280;29282;45.656;11.302;2022-12-07T13:37:26;97884.16;;;17.91;53.60
33163;BME280;29282;45.656;11.302;2022-12-07T13:39:58;97881.44;;;17.91;53.59
33163;BME280;29282;45.656;11.302;2022-12-07T13:42:34;97893.22;;;17.92;53.85
33163;BME280;29282;45.656;11.302;2022-12-07T13:45:27;97888.06;;;17.90;53.75
33163;BME280;29282;45.656;11.302;2022-12-07T13:48:24;97888.84;;;17.91;53.63
33163;BME280;29282;45.656;11.302;2022-12-07T13:50:55;97889.22;;;17.89;53.74
33163;BME280;29282;45.656;11.302;2022-12-07T13:53:21;97890.00;;;17.90;53.79
33163;BME280;29282;45.656;11.302;2022-12-07T13:55:47;97892.75;;;17.90;53.70
33163;BME280;29282;45.656;11.302;2022-12-07T13:58:14;97898.22;;;17.90;53.83
33163;BME280;29282;45.656;11.302;2022-12-07T14:00:40;97891.59;;;17.91;53.67
33163;BME280;29282;45.656;11.302;2022-12-07T14:05:42;97892.28;;;17.88;53.81
33163;BME280;29282;45.656;11.302;2022-12-07T14:10:52;97890.69;;;17.87;53.76
33163;BME280;29282;45.656;11.302;2022-12-07T14:18:47;97882.00;;;17.84;53.95
33163;BME280;29282;45.656;11.302;2022-12-07T14:23:39;97889.41;;;17.84;53.89
33163;BME280;29282;45.656;11.302;2022-12-07T14:26:14;97898.44;;;17.84;53.88
33163;BME280;29282;45.656;11.302;2022-12-07T14:28:40;97895.69;;;17.84;53.75
33163;BME280;29282;45.656;11.302;2022-12-07T14:31:18;97892.50;;;17.82;53.90
33163;BME280;29282;45.656;11.302;2022-12-07T14:33:45;97894.09;;;17.83;54.00
33163;BME280;29282;45.656;11.302;2022-12-07T14:36:11;97893.66;;;17.81;53.74
33163;BME280;29282;45.656;11.302;2022-12-07T14:38:37;97893.66;;;17.81;53.73
33163;BME280;29282;45.656;11.302;2022-12-07T14:41:05;97900.25;;;17.80;53.76
33163;BME280;29282;45.656;11.302;2022-12-07T14:43:50;97896.72;;;17.80;53.91
33163;BME280;29282;45.656;11.302;2022-12-07T14:46:15;97896.72;;;17.80;53.94
33163;BME280;29282;45.656;11.302;2022-12-07T14:48:41;97909.63;;;17.79;53.72
33163;BME280;29282;45.656;11.302;2022-12-07T14:51:08;97906.88;;;17.79;53.72
33163;BME280;29282;45.656;11.302;2022-12-07T14:53:41;97906.88;;;17.79;53.69
33163;BME280;29282;45.656;11.302;2022-12-07T14:56:07;97914.63;;;17.77;53.88
33163;BME280;29282;45.656;11.302;2022-12-07T14:58:33;97918.16;;;17.78;53.75
33163;BME280;29282;45.656;11.302;2022-12-07T15:00:59;97913.84;;;17.77;53.69
33163;BME280;29282;45.656;11.302;2022-12-07T15:03:25;97910.31;;;17.76;53.77
33163;BME280;29282;45.656;11.302;2022-12-07T15:05:50;97913.03;;;17.76;53.70
33163;BME280;29282;45.656;11.302;2022-12-07T15:08:16;97918.53;;;17.76;53.70
33163;BME280;29282;45.656;11.302;2022-12-07T15:10:41;97921.59;;;17.75;53.65
33163;BME280;29282;45.656;11.302;2022-12-07T15:13:07;97924.31;;;17.75;53.78
33163;BME280;29282;45.656;11.302;2022-12-07T15:15:53;97928.97;;;17.74;53.56